sensor_id;sensor_type;location;lat;lon;timestamp;pressure;altitude;pressure_sealevel;temperature;humidity
50356;BME280;36264;51.296;-0.602;2023-06-22T00:01:54;101629.00;;;21.95;50.05
50356;BME280;36264;51.296;-0.602;2023-06-22T00:04:19;101615.81;;;21.80;49.98
50356;BME280;36264;51.296;-0.602;2023-06-22T00:06:44;101628.41;;;21.77;50.56
50356;BME280;36264;51.296;-0.602;2023-06-22T00:09:10;101622.66;;;21.70;51.18
50356;BME280;36264;51.296;-0.602;2023-06-22T00:11:36;101615.75;;;21.67;50.83
50356;BME280;36264;51.296;-0.602;2023-06-22T00:14:02;101618.69;;;21.63;50.49
50356;BME280;36264;51.296;-0.602;2023-06-22T00:16:28;101625.16;;;21.59;51.27
50356;BME280;36264;51.296;-0.602;2023-06-22T00:18:53;101623.34;;;21.45;52.96
50356;BME280;36264;51.296;-0.602;2023-06-22T00:21:18;101618.44;;;21.39;52.69
50356;BME280;36264;51.296;-0.602;2023-06-22T00:23:45;101606.81;;;21.27;51.94
50356;BME280;36264;51.296;-0.602;2023-06-22T00:26:11;101619.28;;;21.25;52.04
50356;BME280;36264;51.296;-0.602;2023-06-22T00:28:36;101622.13;;;21.22;51.92
50356;BME280;36264;51.296;-0.602;2023-06-22T00:31:02;101626.84;;;21.16;52.87
50356;BME280;36264;51.296;-0.602;2023-06-22T00:33:27;101627.69;;;21.17;52.59
50356;BME280;36264;51.296;-0.602;2023-06-22T00:35:53;101626.09;;;21.14;52.23
50356;BME280;36264;51.296;-0.602;2023-06-22T00:38:19;101629.69;;;21.13;52.08
50356;BME280;36264;51.296;-0.602;2023-06-22T00:40:45;101627.50;;;21.06;52.13
50356;BME280;36264;51.296;-0.602;2023-06-22T00:43:11;101620.91;;;20.98;54.08
50356;BME280;36264;51.296;-0.602;2023-06-22T00:45:36;101621.84;;;20.97;53.24
50356;BME280;36264;51.296;-0.602;2023-06-22T00:48:02;101624.41;;;20.99;52.93
50356;BME280;36264;51.296;-0.602;2023-06-22T00:50:32;101624.97;;;21.04;53.02
50356;BME280;36264;51.296;-0.602;2023-06-22T00:53:04;101635.91;;;20.98;52.83
50356;BME280;36264;51.296;-0.602;2023-06-22T00:55:35;101623.25;;;20.89;53.04
50356;BME280;36264;51.296;-0.602;2023-06-22T00:58:11;101625.22;;;20.71;53.12
50356;BME280;36264;51.296;-0.602;2023-06-22T01:00:38;101630.50;;;20.71;52.94
50356;BME280;36264;51.296;-0.602;2023-06-22T01:03:04;101636.28;;;20.61;53.24
50356;BME280;36264;51.296;-0.602;2023-06-22T01:05:31;101635.22;;;20.66;53.24
50356;BME280;36264;51.296;-0.602;2023-06-22T01:13:39;101632.16;;;20.57;53.81
50356;BME280;36264;51.296;-0.602;2023-06-22T01:16:11;101632.81;;;20.31;53.66
50356;BME280;36264;51.296;-0.602;2023-06-22T01:18:41;101626.16;;;20.39;53.11
50356;BME280;36264;51.296;-0.602;2023-06-22T01:21:08;101625.91;;;20.28;53.63
50356;BME280;36264;51.296;-0.602;2023-06-22T01:27:00;101625.56;;;20.34;55.72
50356;BME280;36264;51.296;-0.602;2023-06-22T01:29:30;101634.38;;;20.19;53.98
50356;BME280;36264;51.296;-0.602;2023-06-22T01:31:57;101634.28;;;20.20;53.29
50356;BME280;36264;51.296;-0.602;2023-06-22T01:34:23;101627.66;;;20.13;53.30
50356;BME280;36264;51.296;-0.602;2023-06-22T01:36:50;101629.19;;;20.17;53.20
50356;BME280;36264;51.296;-0.602;2023-06-22T01:39:16;101631.50;;;20.07;53.50
50356;BME280;36264;51.296;-0.602;2023-06-22T01:41:42;101619.09;;;19.94;53.83
50356;BME280;36264;51.296;-0.602;2023-06-22T01:44:08;101618.00;;;19.98;53.56
50356;BME280;36264;51.296;-0.602;2023-06-22T01:46:35;101613.56;;;19.98;53.67
50356;BME280;36264;51.296;-0.602;2023-06-22T01:49:02;101596.97;;;19.96;53.88
50356;BME280;36264;51.296;-0.602;2023-06-22T01:51:29;101617.41;;;19.93;53.76
50356;BME280;36264;51.296;-0.602;2023-06-22T01:53:54;101612.66;;;19.83;54.58
50356;BME280;36264;51.296;-0.602;2023-06-22T01:56:20;101619.88;;;19.80;55.38
50356;BME280;36264;51.296;-0.602;2023-06-22T01:58:50;101625.16;;;19.96;54.85
50356;BME280;36264;51.296;-0.602;2023-06-22T02:01:24;101624.47;;;19.92;54.53
50356;BME280;36264;51.296;-0.602;2023-06-22T02:04:26;101621.06;;;19.90;58.99
50356;BME280;36264;51.296;-0.602;2023-06-22T02:06:57;101625.25;;;19.78;57.78
50356;BME280;36264;51.296;-0.602;2023-06-22T02:09:25;101626.31;;;19.74;58.18
50356;BME280;36264;51.296;-0.602;2023-06-22T02:11:56;101633.28;;;19.75;56.25
50356;BME280;36264;51.296;-0.602;2023-06-22T02:14:23;101631.84;;;19.69;55.81
50356;BME280;36264;51.296;-0.602;2023-06-22T02:16:50;101626.66;;;19.68;55.48
50356;BME280;36264;51.296;-0.602;2023-06-22T02:19:16;101627.06;;;19.60;55.56
50356;BME280;36264;51.296;-0.602;2023-06-22T02:21:44;101634.81;;;19.63;55.32
50356;BME280;36264;51.296;-0.602;2023-06-22T02:24:10;101644.84;;;19.57;55.44
50356;BME280;36264;51.296;-0.602;2023-06-22T02:26:36;101656.84;;;19.62;56.61
50356;BME280;36264;51.296;-0.602;2023-06-22T02:29:03;101643.97;;;19.40;58.51
50356;BME280;36264;51.296;-0.602;2023-06-22T02:31:29;101632.56;;;19.40;57.21
50356;BME280;36264;51.296;-0.602;2023-06-22T02:33:57;101636.25;;;19.53;56.77
50356;BME280;36264;51.296;-0.602;2023-06-22T02:36:23;101634.44;;;19.37;56.73
50356;BME280;36264;51.296;-0.602;2023-06-22T02:38:49;101639.03;;;19.34;56.31
50356;BME280;36264;51.296;-0.602;2023-06-22T02:41:15;101631.66;;;19.41;56.58
50356;BME280;36264;51.296;-0.602;2023-06-22T02:43:46;101641.53;;;19.53;57.20
50356;BME280;36264;51.296;-0.602;2023-06-22T02:46:13;101642.09;;;19.42;56.52
50356;BME280;36264;51.296;-0.602;2023-06-22T02:48:39;101637.84;;;19.40;56.46
50356;BME280;36264;51.296;-0.602;2023-06-22T02:51:05;101638.28;;;19.32;56.89
50356;BME280;36264;51.296;-0.602;2023-06-22T02:53:30;101645.47;;;19.28;56.83
50356;BME280;36264;51.296;-0.602;2023-06-22T02:55:56;101631.03;;;19.19;58.95
50356;BME280;36264;51.296;-0.602;2023-06-22T02:58:21;101626.69;;;19.18;57.23
50356;BME280;36264;51.296;-0.602;2023-06-22T03:00:46;101619.19;;;19.11;56.84
50356;BME280;36264;51.296;-0.602;2023-06-22T03:03:12;101635.44;;;19.19;56.86
50356;BME280;36264;51.296;-0.602;2023-06-22T03:05:37;101634.66;;;19.17;56.72
50356;BME280;36264;51.296;-0.602;2023-06-22T03:08:03;101634.81;;;19.14;56.75
50356;BME280;36264;51.296;-0.602;2023-06-22T03:10:28;101635.06;;;19.09;56.59
50356;BME280;36264;51.296;-0.602;2023-06-22T03:12:54;101628.56;;;19.16;56.86
50356;BME280;36264;51.296;-0.602;2023-06-22T03:15:19;101622.06;;;19.06;56.50
50356;BME280;36264;51.296;-0.602;2023-06-22T03:17:45;101625.81;;;19.02;56.04
50356;BME280;36264;51.296;-0.602;2023-06-22T03:20:11;101611.00;;;18.99;56.30
50356;BME280;36264;51.296;-0.602;2023-06-22T03:22:41;101620.81;;;19.13;58.15
50356;BME280;36264;51.296;-0.602;2023-06-22T03:25:10;101617.44;;;19.11;56.65
50356;BME280;36264;51.296;-0.602;2023-06-22T03:27:39;101620.91;;;19.12;56.27
50356;BME280;36264;51.296;-0.602;2023-06-22T03:30:06;101624.25;;;18.98;56.20
50356;BME280;36264;51.296;-0.602;2023-06-22T03:32:32;101615.34;;;18.83;57.21
50356;BME280;36264;51.296;-0.602;2023-06-22T03:34:57;101621.41;;;18.85;56.59
50356;BME280;36264;51.296;-0.602;2023-06-22T03:37:25;101623.81;;;18.90;55.97
50356;BME280;36264;51.296;-0.602;2023-06-22T03:39:51;101618.38;;;18.75;56.57
50356;BME280;36264;51.296;-0.602;2023-06-22T03:42:16;101611.34;;;18.76;56.34
50356;BME280;36264;51.296;-0.602;2023-06-22T03:44:41;101608.84;;;18.73;56.42
50356;BME280;36264;51.296;-0.602;2023-06-22T03:47:07;101607.50;;;18.65;56.58
50356;BME280;36264;51.296;-0.602;2023-06-22T03:49:33;101604.53;;;18.72;56.23
50356;BME280;36264;51.296;-0.602;2023-06-22T03:52:00;101602.06;;;18.69;56.51
50356;BME280;36264;51.296;-0.602;2023-06-22T03:54:26;101592.16;;;18.56;57.40
50356;BME280;36264;51.296;-0.602;2023-06-22T03:56:51;101605.00;;;18.62;57.04
50356;BME280;36264;51.296;-0.602;2023-06-22T03:59:17;101607.56;;;18.64;56.97
50356;BME280;36264;51.296;-0.602;2023-06-22T04:01:42;101614.06;;;18.57;56.91
50356;BME280;36264;51.296;-0.602;2023-06-22T04:04:08;101606.97;;;18.59;57.89
50356;BME280;36264;51.296;-0.602;2023-06-22T04:06:33;101613.66;;;18.64;57.22
50356;BME280;36264;51.296;-0.602;2023-06-22T04:08:59;101597.28;;;18.59;57.18
50356;BME280;36264;51.296;-0.602;2023-06-22T04:11:26;101612.59;;;18.69;57.32
50356;BME280;36264;51.296;-0.602;2023-06-22T04:13:51;101608.09;;;18.71;56.98
50356;BME280;36264;51.296;-0.602;2023-06-22T04:16:16;101608.16;;;18.69;57.89
50356;BME280;36264;51.296;-0.602;2023-06-22T04:18:42;101611.66;;;18.70;57.49
50356;BME280;36264;51.296;-0.602;2023-06-22T04:21:07;101609.00;;;18.70;57.39
50356;BME280;36264;51.296;-0.602;2023-06-22T04:23:33;101615.69;;;18.77;57.49
50356;BME280;36264;51.296;-0.602;2023-06-22T04:25:58;101617.19;;;18.81;57.25
50356;BME280;36264;51.296;-0.602;2023-06-22T04:28:24;101607.53;;;18.81;57.68
50356;BME280;36264;51.296;-0.602;2023-06-22T04:30:50;101610.94;;;18.83;57.99
50356;BME280;36264;51.296;-0.602;2023-06-22T04:33:16;101608.53;;;18.96;58.06
50356;BME280;36264;51.296;-0.602;2023-06-22T04:35:45;101609.78;;;19.07;57.86
50356;BME280;36264;51.296;-0.602;2023-06-22T04:38:12;101615.97;;;19.06;57.56
50356;BME280;36264;51.296;-0.602;2023-06-22T04:40:39;101610.94;;;19.01;57.96
50356;BME280;36264;51.296;-0.602;2023-06-22T04:43:04;101603.28;;;18.96;58.02
50356;BME280;36264;51.296;-0.602;2023-06-22T04:45:34;101600.81;;;18.93;57.98
50356;BME280;36264;51.296;-0.602;2023-06-22T04:48:03;101590.72;;;19.01;58.13
50356;BME280;36264;51.296;-0.602;2023-06-22T04:50:29;101599.88;;;18.94;58.18
50356;BME280;36264;51.296;-0.602;2023-06-22T04:52:54;101613.41;;;19.04;58.25
50356;BME280;36264;51.296;-0.602;2023-06-22T04:55:20;101604.19;;;19.13;58.21
50356;BME280;36264;51.296;-0.602;2023-06-22T04:57:46;101615.47;;;19.15;58.17
50356;BME280;36264;51.296;-0.602;2023-06-22T05:00:20;101610.75;;;19.37;58.54
50356;BME280;36264;51.296;-0.602;2023-06-22T05:02:47;101608.16;;;19.20;58.90
50356;BME280;36264;51.296;-0.602;2023-06-22T05:05:13;101620.09;;;19.27;60.48
50356;BME280;36264;51.296;-0.602;2023-06-22T05:07:41;101615.16;;;19.37;60.07
50356;BME280;36264;51.296;-0.602;2023-06-22T05:10:09;101622.13;;;19.38;59.88
50356;BME280;36264;51.296;-0.602;2023-06-22T05:12:35;101625.19;;;19.30;61.64
50356;BME280;36264;51.296;-0.602;2023-06-22T05:15:01;101628.25;;;19.39;61.51
50356;BME280;36264;51.296;-0.602;2023-06-22T05:17:26;101638.63;;;19.42;61.45
50356;BME280;36264;51.296;-0.602;2023-06-22T05:19:52;101641.94;;;19.45;63.09
50356;BME280;36264;51.296;-0.602;2023-06-22T05:22:17;101640.94;;;19.48;63.08
50356;BME280;36264;51.296;-0.602;2023-06-22T05:24:43;101637.78;;;19.57;62.84
50356;BME280;36264;51.296;-0.602;2023-06-22T05:27:09;101633.88;;;19.64;62.26
50356;BME280;36264;51.296;-0.602;2023-06-22T05:29:36;101635.94;;;19.75;61.49
50356;BME280;36264;51.296;-0.602;2023-06-22T05:32:02;101644.00;;;19.72;60.97
50356;BME280;36264;51.296;-0.602;2023-06-22T05:34:27;101638.91;;;19.69;61.26
50356;BME280;36264;51.296;-0.602;2023-06-22T05:36:53;101639.56;;;19.72;60.90
50356;BME280;36264;51.296;-0.602;2023-06-22T05:39:18;101646.25;;;19.80;60.93
50356;BME280;36264;51.296;-0.602;2023-06-22T05:41:46;101641.72;;;19.98;60.56
50356;BME280;36264;51.296;-0.602;2023-06-22T05:44:11;101644.44;;;19.96;61.16
50356;BME280;36264;51.296;-0.602;2023-06-22T05:46:40;101636.44;;;20.14;61.01
50356;BME280;36264;51.296;-0.602;2023-06-22T05:49:05;101631.63;;;20.20;60.58
50356;BME280;36264;51.296;-0.602;2023-06-22T05:51:31;101632.38;;;20.38;60.30
50356;BME280;36264;51.296;-0.602;2023-06-22T05:53:56;101635.06;;;20.53;60.04
50356;BME280;36264;51.296;-0.602;2023-06-22T05:56:21;101620.28;;;20.65;60.13
50356;BME280;36264;51.296;-0.602;2023-06-22T05:58:47;101637.03;;;20.79;60.22
50356;BME280;36264;51.296;-0.602;2023-06-22T06:01:12;101634.59;;;20.91;59.81
50356;BME280;36264;51.296;-0.602;2023-06-22T06:03:38;101638.34;;;21.01;60.33
50356;BME280;36264;51.296;-0.602;2023-06-22T06:06:06;101637.41;;;21.16;60.95
50356;BME280;36264;51.296;-0.602;2023-06-22T06:08:32;101638.75;;;21.24;60.47
50356;BME280;36264;51.296;-0.602;2023-06-22T06:10:57;101639.97;;;21.32;60.32
50356;BME280;36264;51.296;-0.602;2023-06-22T06:13:23;101646.84;;;21.35;60.34
50356;BME280;36264;51.296;-0.602;2023-06-22T06:15:48;101647.22;;;21.43;60.57
50356;BME280;36264;51.296;-0.602;2023-06-22T06:18:16;101646.78;;;21.51;60.28
50356;BME280;36264;51.296;-0.602;2023-06-22T06:20:41;101643.66;;;21.59;61.14
50356;BME280;36264;51.296;-0.602;2023-06-22T06:23:07;101637.94;;;21.65;63.41
50356;BME280;36264;51.296;-0.602;2023-06-22T06:25:32;101641.16;;;21.70;62.48
50356;BME280;36264;51.296;-0.602;2023-06-22T06:27:58;101632.75;;;21.78;62.45
50356;BME280;36264;51.296;-0.602;2023-06-22T06:30:23;101637.16;;;21.77;63.86
50356;BME280;36264;51.296;-0.602;2023-06-22T06:32:49;101641.56;;;21.91;64.10
50356;BME280;36264;51.296;-0.602;2023-06-22T06:35:15;101634.84;;;22.00;63.59
50356;BME280;36264;51.296;-0.602;2023-06-22T06:37:45;101632.88;;;22.16;63.45
50356;BME280;36264;51.296;-0.602;2023-06-22T06:40:12;101623.47;;;22.25;63.17
50356;BME280;36264;51.296;-0.602;2023-06-22T06:42:38;101623.78;;;22.20;64.09
50356;BME280;36264;51.296;-0.602;2023-06-22T06:45:06;101622.84;;;22.21;64.82
50356;BME280;36264;51.296;-0.602;2023-06-22T06:47:31;101626.75;;;22.16;65.29
50356;BME280;36264;51.296;-0.602;2023-06-22T06:49:57;101620.09;;;22.23;65.83
50356;BME280;36264;51.296;-0.602;2023-06-22T06:52:22;101621.13;;;22.20;66.01
50356;BME280;36264;51.296;-0.602;2023-06-22T06:54:48;101620.81;;;22.25;66.05
50356;BME280;36264;51.296;-0.602;2023-06-22T06:57:13;101618.78;;;22.30;65.90
50356;BME280;36264;51.296;-0.602;2023-06-22T06:59:40;101618.47;;;22.35;66.09
50356;BME280;36264;51.296;-0.602;2023-06-22T07:02:05;101612.72;;;22.41;64.95
50356;BME280;36264;51.296;-0.602;2023-06-22T07:04:31;101616.47;;;22.51;64.94
50356;BME280;36264;51.296;-0.602;2023-06-22T07:06:56;101618.19;;;22.52;65.51
50356;BME280;36264;51.296;-0.602;2023-06-22T07:09:21;101614.34;;;22.56;65.25
50356;BME280;36264;51.296;-0.602;2023-06-22T07:11:47;101615.72;;;22.49;64.93
50356;BME280;36264;51.296;-0.602;2023-06-22T07:14:12;101621.75;;;22.51;66.30
50356;BME280;36264;51.296;-0.602;2023-06-22T07:16:37;101613.09;;;22.62;65.26
50356;BME280;36264;51.296;-0.602;2023-06-22T07:19:03;101624.31;;;22.66;65.56
50356;BME280;36264;51.296;-0.602;2023-06-22T07:21:28;101622.50;;;22.79;65.39
50356;BME280;36264;51.296;-0.602;2023-06-22T07:23:53;101626.66;;;22.83;65.55
50356;BME280;36264;51.296;-0.602;2023-06-22T07:26:20;101618.81;;;22.82;65.78
50356;BME280;36264;51.296;-0.602;2023-06-22T07:28:45;101616.59;;;22.88;65.03
50356;BME280;36264;51.296;-0.602;2023-06-22T07:31:10;101621.25;;;22.97;65.06
50356;BME280;36264;51.296;-0.602;2023-06-22T07:33:36;101618.59;;;22.97;66.80
50356;BME280;36264;51.296;-0.602;2023-06-22T07:36:01;101615.84;;;22.99;67.76
50356;BME280;36264;51.296;-0.602;2023-06-22T07:38:32;101606.63;;;23.05;67.55
50356;BME280;36264;51.296;-0.602;2023-06-22T07:40:58;101603.47;;;23.12;66.60
50356;BME280;36264;51.296;-0.602;2023-06-22T07:43:24;101606.84;;;23.14;66.82
50356;BME280;36264;51.296;-0.602;2023-06-22T07:45:49;101616.72;;;23.12;70.23
50356;BME280;36264;51.296;-0.602;2023-06-22T07:48:21;101615.59;;;23.41;68.47
50356;BME280;36264;51.296;-0.602;2023-06-22T07:50:47;101608.06;;;23.34;66.79
50356;BME280;36264;51.296;-0.602;2023-06-22T07:53:13;101602.31;;;23.41;66.54
50356;BME280;36264;51.296;-0.602;2023-06-22T07:55:38;101608.28;;;23.44;67.44
50356;BME280;36264;51.296;-0.602;2023-06-22T07:58:03;101602.09;;;23.44;67.88
50356;BME280;36264;51.296;-0.602;2023-06-22T08:00:29;101597.75;;;23.56;66.81
50356;BME280;36264;51.296;-0.602;2023-06-22T08:02:54;101595.97;;;23.67;66.76
50356;BME280;36264;51.296;-0.602;2023-06-22T08:05:20;101606.47;;;23.69;70.48
50356;BME280;36264;51.296;-0.602;2023-06-22T08:07:45;101595.31;;;23.77;66.95
50356;BME280;36264;51.296;-0.602;2023-06-22T08:10:11;101610.03;;;23.94;69.08
50356;BME280;36264;51.296;-0.602;2023-06-22T08:12:38;101591.84;;;24.00;66.72
50356;BME280;36264;51.296;-0.602;2023-06-22T08:15:04;101591.09;;;23.98;68.00
50356;BME280;36264;51.296;-0.602;2023-06-22T08:17:30;101593.19;;;24.06;66.21
50356;BME280;36264;51.296;-0.602;2023-06-22T08:19:56;101595.78;;;24.19;66.22
50356;BME280;36264;51.296;-0.602;2023-06-22T08:22:22;101594.69;;;24.33;66.10
50356;BME280;36264;51.296;-0.602;2023-06-22T08:24:47;101587.03;;;24.41;64.45
50356;BME280;36264;51.296;-0.602;2023-06-22T08:27:13;101593.41;;;24.50;64.71
50356;BME280;36264;51.296;-0.602;2023-06-22T08:29:39;101587.09;;;24.64;64.51
50356;BME280;36264;51.296;-0.602;2023-06-22T08:32:05;101594.34;;;24.73;64.41
50356;BME280;36264;51.296;-0.602;2023-06-22T08:34:30;101597.25;;;24.70;67.19
50356;BME280;36264;51.296;-0.602;2023-06-22T08:36:56;101585.50;;;24.84;63.52
50356;BME280;36264;51.296;-0.602;2023-06-22T08:39:21;101597.59;;;24.88;63.86
50356;BME280;36264;51.296;-0.602;2023-06-22T08:41:47;101593.97;;;25.00;62.61
50356;BME280;36264;51.296;-0.602;2023-06-22T08:44:13;101591.69;;;24.95;63.91
50356;BME280;36264;51.296;-0.602;2023-06-22T08:46:38;101593.50;;;25.06;62.52
50356;BME280;36264;51.296;-0.602;2023-06-22T08:49:06;101591.66;;;25.18;61.96
50356;BME280;36264;51.296;-0.602;2023-06-22T08:51:32;101587.56;;;25.25;61.33
50356;BME280;36264;51.296;-0.602;2023-06-22T08:53:57;101591.31;;;25.34;60.99
50356;BME280;36264;51.296;-0.602;2023-06-22T08:56:22;101593.22;;;25.43;61.03
50356;BME280;36264;51.296;-0.602;2023-06-22T08:58:48;101596.00;;;25.53;60.97
50356;BME280;36264;51.296;-0.602;2023-06-22T09:01:13;101597.56;;;25.56;59.92
50356;BME280;36264;51.296;-0.602;2023-06-22T09:03:40;101594.19;;;25.54;59.29
50356;BME280;36264;51.296;-0.602;2023-06-22T09:06:06;101601.06;;;25.56;59.11
50356;BME280;36264;51.296;-0.602;2023-06-22T09:08:31;101598.03;;;25.61;59.02
50356;BME280;36264;51.296;-0.602;2023-06-22T09:10:57;101598.97;;;25.60;59.58
50356;BME280;36264;51.296;-0.602;2023-06-22T09:13:22;101595.69;;;25.67;59.50
50356;BME280;36264;51.296;-0.602;2023-06-22T09:15:48;101597.75;;;25.75;58.49
50356;BME280;36264;51.296;-0.602;2023-06-22T09:18:13;101595.78;;;25.89;58.11
50356;BME280;36264;51.296;-0.602;2023-06-22T09:20:39;101599.59;;;25.96;58.04
50356;BME280;36264;51.296;-0.602;2023-06-22T09:23:04;101594.88;;;26.11;58.33
50356;BME280;36264;51.296;-0.602;2023-06-22T09:25:30;101595.75;;;26.21;57.92
50356;BME280;36264;51.296;-0.602;2023-06-22T09:27:55;101595.25;;;26.27;57.09
50356;BME280;36264;51.296;-0.602;2023-06-22T09:30:21;101590.81;;;26.37;56.58
50356;BME280;36264;51.296;-0.602;2023-06-22T09:32:47;101590.38;;;26.32;55.49
50356;BME280;36264;51.296;-0.602;2023-06-22T09:35:12;101586.16;;;26.51;55.29
50356;BME280;36264;51.296;-0.602;2023-06-22T09:37:39;101588.28;;;26.78;54.63
50356;BME280;36264;51.296;-0.602;2023-06-22T09:40:06;101588.06;;;27.01;54.36
50356;BME280;36264;51.296;-0.602;2023-06-22T09:42:36;101588.75;;;26.93;54.11
50356;BME280;36264;51.296;-0.602;2023-06-22T09:45:02;101595.28;;;27.20;54.73
50356;BME280;36264;51.296;-0.602;2023-06-22T09:47:28;101598.34;;;27.36;54.21
50356;BME280;36264;51.296;-0.602;2023-06-22T09:49:54;101594.81;;;27.36;53.21
50356;BME280;36264;51.296;-0.602;2023-06-22T09:52:21;101597.28;;;27.27;52.75
50356;BME280;36264;51.296;-0.602;2023-06-22T09:54:46;101588.44;;;27.17;53.33
50356;BME280;36264;51.296;-0.602;2023-06-22T09:57:12;101599.78;;;27.19;53.72
50356;BME280;36264;51.296;-0.602;2023-06-22T09:59:37;101597.81;;;27.21;53.61
50356;BME280;36264;51.296;-0.602;2023-06-22T10:02:05;101588.50;;;27.37;53.30
50356;BME280;36264;51.296;-0.602;2023-06-22T10:04:31;101579.81;;;27.35;51.93
50356;BME280;36264;51.296;-0.602;2023-06-22T10:06:56;101579.53;;;27.57;50.76
50356;BME280;36264;51.296;-0.602;2023-06-22T10:09:22;101590.09;;;27.69;51.42
50356;BME280;36264;51.296;-0.602;2023-06-22T10:11:47;101585.75;;;27.87;50.72
50356;BME280;36264;51.296;-0.602;2023-06-22T10:14:12;101584.34;;;28.02;50.38
50356;BME280;36264;51.296;-0.602;2023-06-22T10:16:38;101594.31;;;28.10;50.47
50356;BME280;36264;51.296;-0.602;2023-06-22T10:19:03;101581.56;;;28.14;49.58
50356;BME280;36264;51.296;-0.602;2023-06-22T10:21:29;101583.50;;;28.12;50.79
50356;BME280;36264;51.296;-0.602;2023-06-22T10:23:54;101580.25;;;28.28;51.07
50356;BME280;36264;51.296;-0.602;2023-06-22T10:26:20;101579.13;;;28.30;50.03
50356;BME280;36264;51.296;-0.602;2023-06-22T10:28:46;101573.50;;;28.24;49.22
50356;BME280;36264;51.296;-0.602;2023-06-22T10:31:11;101584.75;;;28.27;49.12
50356;BME280;36264;51.296;-0.602;2023-06-22T10:33:37;101583.19;;;28.25;49.28
50356;BME280;36264;51.296;-0.602;2023-06-22T10:36:02;101582.38;;;28.24;49.06
50356;BME280;36264;51.296;-0.602;2023-06-22T10:38:27;101584.75;;;28.27;49.65
50356;BME280;36264;51.296;-0.602;2023-06-22T10:40:53;101579.84;;;28.23;50.22
50356;BME280;36264;51.296;-0.602;2023-06-22T10:43:18;101586.16;;;28.22;50.35
50356;BME280;36264;51.296;-0.602;2023-06-22T10:45:45;101589.94;;;28.29;49.07
50356;BME280;36264;51.296;-0.602;2023-06-22T10:48:10;101578.53;;;28.46;49.03
50356;BME280;36264;51.296;-0.602;2023-06-22T10:50:36;101576.38;;;28.69;48.26
50356;BME280;36264;51.296;-0.602;2023-06-22T10:53:01;101575.84;;;28.94;49.91
50356;BME280;36264;51.296;-0.602;2023-06-22T10:55:26;101580.16;;;29.04;47.03
50356;BME280;36264;51.296;-0.602;2023-06-22T10:57:52;101578.25;;;29.15;46.78
50356;BME280;36264;51.296;-0.602;2023-06-22T11:00:17;101577.41;;;29.24;45.66
50356;BME280;36264;51.296;-0.602;2023-06-22T11:02:43;101582.16;;;29.30;45.77
50356;BME280;36264;51.296;-0.602;2023-06-22T11:05:08;101578.72;;;29.38;45.96
50356;BME280;36264;51.296;-0.602;2023-06-22T11:07:34;101578.44;;;29.41;44.09
50356;BME280;36264;51.296;-0.602;2023-06-22T11:09:59;101581.09;;;29.41;44.51
50356;BME280;36264;51.296;-0.602;2023-06-22T11:12:25;101583.47;;;29.44;44.46
50356;BME280;36264;51.296;-0.602;2023-06-22T11:14:50;101583.94;;;29.57;44.33
50356;BME280;36264;51.296;-0.602;2023-06-22T11:17:17;101583.31;;;29.63;44.99
50356;BME280;36264;51.296;-0.602;2023-06-22T11:19:44;101581.47;;;29.64;43.75
50356;BME280;36264;51.296;-0.602;2023-06-22T11:22:09;101577.38;;;29.52;43.69
50356;BME280;36264;51.296;-0.602;2023-06-22T11:24:35;101582.66;;;29.61;43.15
50356;BME280;36264;51.296;-0.602;2023-06-22T11:27:00;101574.78;;;29.60;43.60
50356;BME280;36264;51.296;-0.602;2023-06-22T11:29:26;101566.75;;;29.60;42.91
50356;BME280;36264;51.296;-0.602;2023-06-22T11:31:51;101568.41;;;29.61;43.16
50356;BME280;36264;51.296;-0.602;2023-06-22T11:34:16;101564.50;;;29.73;43.17
50356;BME280;36264;51.296;-0.602;2023-06-22T11:36:42;101568.47;;;29.51;42.38
50356;BME280;36264;51.296;-0.602;2023-06-22T11:39:09;101566.81;;;29.68;43.23
50356;BME280;36264;51.296;-0.602;2023-06-22T11:41:35;101573.72;;;29.89;42.61
50356;BME280;36264;51.296;-0.602;2023-06-22T11:44:00;101566.97;;;30.03;41.95
50356;BME280;36264;51.296;-0.602;2023-06-22T11:46:26;101571.75;;;30.17;41.99
50356;BME280;36264;51.296;-0.602;2023-06-22T11:48:51;101569.84;;;30.35;41.58
50356;BME280;36264;51.296;-0.602;2023-06-22T11:51:16;101567.16;;;30.53;41.01
50356;BME280;36264;51.296;-0.602;2023-06-22T11:53:42;101565.50;;;30.61;40.15
50356;BME280;36264;51.296;-0.602;2023-06-22T11:56:07;101568.50;;;30.58;40.22
50356;BME280;36264;51.296;-0.602;2023-06-22T11:58:32;101562.19;;;30.67;40.47
50356;BME280;36264;51.296;-0.602;2023-06-22T12:00:58;101562.75;;;30.79;40.42
50356;BME280;36264;51.296;-0.602;2023-06-22T12:03:23;101560.06;;;30.79;40.07
50356;BME280;36264;51.296;-0.602;2023-06-22T12:05:49;101563.03;;;30.67;39.81
50356;BME280;36264;51.296;-0.602;2023-06-22T12:08:15;101561.38;;;30.40;39.67
50356;BME280;36264;51.296;-0.602;2023-06-22T12:10:40;101554.59;;;30.54;39.69
50356;BME280;36264;51.296;-0.602;2023-06-22T12:13:06;101551.16;;;30.70;39.47
50356;BME280;36264;51.296;-0.602;2023-06-22T12:15:31;101549.28;;;30.70;38.94
50356;BME280;36264;51.296;-0.602;2023-06-22T12:17:56;101552.53;;;30.82;38.99
50356;BME280;36264;51.296;-0.602;2023-06-22T12:20:22;101547.22;;;30.91;38.38
50356;BME280;36264;51.296;-0.602;2023-06-22T12:22:47;101538.88;;;31.02;38.48
50356;BME280;36264;51.296;-0.602;2023-06-22T12:25:13;101540.13;;;31.24;38.41
50356;BME280;36264;51.296;-0.602;2023-06-22T12:27:38;101548.00;;;31.34;39.24
50356;BME280;36264;51.296;-0.602;2023-06-22T12:30:04;101540.19;;;31.57;39.32
50356;BME280;36264;51.296;-0.602;2023-06-22T12:32:30;101537.50;;;31.73;39.87
50356;BME280;36264;51.296;-0.602;2023-06-22T12:34:56;101541.38;;;31.87;39.44
50356;BME280;36264;51.296;-0.602;2023-06-22T12:37:21;101527.94;;;31.95;38.63
50356;BME280;36264;51.296;-0.602;2023-06-22T12:39:46;101524.59;;;31.93;38.25
50356;BME280;36264;51.296;-0.602;2023-06-22T12:42:12;101533.66;;;32.09;38.88
50356;BME280;36264;51.296;-0.602;2023-06-22T12:44:38;101524.38;;;32.20;38.07